Time;durP1;ratioP1;P1;durP2;ratioP2;P2;SDS_P1;SDS_P2;PMS_P1;PMS_P2;Temp;Humidity;BMP_temperature;BMP_pressure;BME280_temperature;BME280_humidity;BME280_pressure;Samples;Min_cycle;Max_cycle;Signal;HPM_P1;HPM_P2
2021/11/23 00:01:20;;;;;;;54.55;35.78;;;-0.20;99.90;;;;;;5019058;23;20046;-80
2021/11/23 00:03:20;;;;;;;55.60;36.38;;;-0.20;99.90;;;;;;5018723;23;20023;-79
2021/11/23 00:05:22;;;;;;;59.65;38.92;;;-0.10;99.90;;;;;;5016855;23;20051;-80
2021/11/23 00:07:22;;;;;;;59.45;39.58;;;0.00;99.90;;;;;;5018688;23;20007;-80
2021/11/23 00:09:24;;;;;;;56.05;36.15;;;0.10;99.90;;;;;;5019094;23;20289;-78
2021/11/23 00:11:25;;;;;;;48.60;34.13;;;0.20;99.90;;;;;;5018766;23;20007;-80
2021/11/23 00:13:25;;;;;;;54.92;36.25;;;0.30;99.90;;;;;;5018899;23;20562;-80
2021/11/23 00:15:26;;;;;;;59.05;39.58;;;0.30;99.90;;;;;;5019115;23;20034;-80
2021/11/23 00:17:27;;;;;;;47.15;33.33;;;0.40;99.90;;;;;;5018677;23;20027;-81
2021/11/23 00:19:27;;;;;;;54.33;34.92;;;0.50;99.90;;;;;;5017640;23;20090;-81
2021/11/23 00:21:28;;;;;;;48.50;33.63;;;0.70;99.90;;;;;;5018392;23;20015;-80
2021/11/23 00:23:29;;;;;;;58.47;32.83;;;0.80;99.90;;;;;;5018887;23;20014;-81
2021/11/23 00:25:31;;;;;;;50.85;32.90;;;0.90;99.90;;;;;;5018434;23;20041;-79
2021/11/23 00:27:32;;;;;;;49.63;31.43;;;1.00;99.90;;;;;;5017378;23;20094;-78
2021/11/23 00:29:33;;;;;;;48.75;31.27;;;1.10;99.90;;;;;;5017012;23;20022;-81
2021/11/23 00:31:34;;;;;;;52.13;31.75;;;1.20;99.90;;;;;;5018847;23;20030;-79
2021/11/23 00:33:41;;;;;;;49.72;32.17;;;1.20;99.90;;;;;;5018361;23;20029;-78
2021/11/23 00:35:43;;;;;;;47.30;32.20;;;1.30;99.90;;;;;;5018709;23;20011;-80
2021/11/23 00:37:46;;;;;;;46.40;30.45;;;1.40;99.90;;;;;;5018021;23;20031;-80
2021/11/23 00:39:49;;;;;;;;;;;1.40;99.90;;;;;;5017867;23;20435;-79
2021/11/23 00:41:50;;;;;;;50.38;30.63;;;1.50;99.90;;;;;;5018298;23;20277;-79
2021/11/23 00:43:51;;;;;;;42.22;28.88;;;1.60;99.90;;;;;;5018415;23;20018;-79
2021/11/23 00:45:52;;;;;;;46.10;29.48;;;1.60;99.90;;;;;;5016614;23;20102;-80
2021/11/23 00:47:52;;;;;;;40.28;27.13;;;1.70;99.90;;;;;;5018208;23;20021;-81
2021/11/23 00:49:53;;;;;;;43.35;27.52;;;1.80;99.90;;;;;;5018341;23;20068;-80
2021/11/23 00:51:53;;;;;;;47.72;29.58;;;1.80;99.90;;;;;;5018405;23;20011;-80
2021/11/23 00:53:54;;;;;;;38.83;26.95;;;1.80;99.90;;;;;;5016589;23;20033;-78
2021/11/23 00:55:56;;;;;;;42.60;27.75;;;1.90;99.90;;;;;;5018299;23;20014;-78
2021/11/23 00:57:57;;;;;;;35.15;26.50;;;1.90;99.90;;;;;;5016895;23;20089;-80
2021/11/23 00:59:57;;;;;;;39.65;25.70;;;1.90;99.90;;;;;;5018261;23;20015;-79
2021/11/23 01:01:59;;;;;;;37.95;26.27;;;1.90;99.90;;;;;;5018548;23;20007;-77
2021/11/23 01:04:00;;;;;;;39.65;25.65;;;1.90;99.90;;;;;;5018179;23;20011;-78
2021/11/23 01:06:01;;;;;;;44.80;27.63;;;2.00;99.90;;;;;;5016270;23;20025;-79
2021/11/23 01:08:02;;;;;;;41.83;25.73;;;2.00;99.90;;;;;;5018568;23;20110;-78
2021/11/23 01:10:04;;;;;;;36.92;26.50;;;2.10;99.90;;;;;;5016381;23;20019;-79
2021/11/23 01:12:06;;;;;;;35.00;25.88;;;2.10;99.90;;;;;;5017959;23;20018;-80
2021/11/23 01:14:08;;;;;;;42.13;27.13;;;2.20;99.90;;;;;;5018396;23;20439;-79
2021/11/23 01:16:10;;;;;;;40.47;25.95;;;2.20;99.90;;;;;;5017520;23;20331;-78
2021/11/23 01:18:13;;;;;;;42.83;26.83;;;2.20;99.90;;;;;;5015596;23;20022;-80
2021/11/23 01:20:14;;;;;;;33.13;25.23;;;2.20;99.90;;;;;;5016715;23;20085;-79
2021/11/23 01:22:14;;;;;;;30.50;22.92;;;2.30;99.90;;;;;;5018115;23;20011;-79
2021/11/23 01:24:15;;;;;;;38.17;24.83;;;2.30;99.90;;;;;;5017648;23;20490;-79
2021/11/23 01:26:16;;;;;;;36.35;23.85;;;2.30;99.90;;;;;;5016125;23;20326;-79
2021/11/23 01:28:18;;;;;;;36.42;24.13;;;2.30;99.90;;;;;;5017330;23;20034;-79
2021/11/23 01:30:19;;;;;;;29.38;22.88;;;2.30;99.90;;;;;;5016567;23;20347;-80
2021/11/23 01:32:19;;;;;;;42.17;23.65;;;2.40;99.90;;;;;;5015300;23;20011;-78
2021/11/23 01:34:21;;;;;;;26.50;20.45;;;2.40;99.90;;;;;;5015826;23;20013;-79
2021/11/23 01:36:22;;;;;;;35.33;20.75;;;2.40;99.90;;;;;;5017922;23;20011;-80
2021/11/23 01:38:22;;;;;;;26.70;21.02;;;2.40;99.90;;;;;;5016670;23;20007;-81
2021/11/23 01:40:23;;;;;;;32.25;21.67;;;2.50;99.90;;;;;;5017808;23;20007;-80
2021/11/23 01:42:24;;;;;;;36.58;20.98;;;2.50;99.90;;;;;;5016629;23;20035;-81
2021/11/23 01:44:25;;;;;;;32.25;21.38;;;2.50;99.90;;;;;;5016926;23;20007;-82
2021/11/23 01:46:26;;;;;;;31.63;20.25;;;2.50;99.90;;;;;;5014966;23;20224;-80
2021/11/23 01:48:27;;;;;;;28.85;21.92;;;2.60;99.90;;;;;;5015298;23;20198;-83
2021/11/23 01:50:29;;;;;;;33.65;21.33;;;2.60;99.90;;;;;;5017241;23;20014;-80
2021/11/23 01:52:29;;;;;;;29.25;19.90;;;2.70;99.90;;;;;;5015691;23;20007;-80
2021/11/23 01:54:31;;;;;;;28.75;20.05;;;2.70;99.90;;;;;;5016813;23;20010;-80
2021/11/23 01:56:32;;;;;;;32.05;20.63;;;2.80;99.90;;;;;;5017895;23;20010;-80
2021/11/23 01:58:32;;;;;;;32.00;22.92;;;2.80;99.90;;;;;;5017805;23;20003;-81
2021/11/23 02:00:35;;;;;;;33.83;21.75;;;2.90;99.90;;;;;;5016671;23;20015;-80
2021/11/23 02:02:36;;;;;;;32.13;20.77;;;2.90;99.90;;;;;;5016218;23;20071;-80
2021/11/23 02:04:38;;;;;;;31.13;20.75;;;3.00;99.90;;;;;;5016030;23;20485;-79
2021/11/23 02:06:38;;;;;;;28.85;20.95;;;3.00;99.90;;;;;;5017441;23;20038;-79
2021/11/23 02:08:40;;;;;;;31.60;22.27;;;3.00;99.90;;;;;;5018432;23;20003;-80
2021/11/23 02:10:41;;;;;;;33.20;20.95;;;3.10;99.90;;;;;;5017546;23;20010;-79
2021/11/23 02:12:42;;;;;;;30.85;21.20;;;3.10;99.90;;;;;;5018035;23;20329;-80
2021/11/23 02:14:44;;;;;;;31.70;19.73;;;3.10;99.90;;;;;;5016112;23;20479;-79
2021/11/23 02:16:45;;;;;;;27.02;18.90;;;3.20;99.90;;;;;;5016880;23;20022;-79
2021/11/23 02:18:46;;;;;;;31.02;18.30;;;3.30;99.90;;;;;;5016047;23;20018;-81
2021/11/23 02:20:48;;;;;;;29.67;18.20;;;3.30;99.90;;;;;;5016339;23;20011;-80
2021/11/23 02:22:50;;;;;;;26.92;17.77;;;3.40;99.90;;;;;;5015970;23;20010;-80
2021/11/23 02:24:51;;;;;;;32.15;16.10;;;3.50;99.90;;;;;;5016011;23;20573;-79
2021/11/23 02:26:52;;;;;;;23.05;15.55;;;3.60;99.90;;;;;;5016309;23;20015;-79
2021/11/23 02:28:53;;;;;;;25.38;15.32;;;3.70;99.90;;;;;;5018198;23;20014;-79
2021/11/23 02:30:56;;;;;;;24.33;14.18;;;3.70;99.90;;;;;;5017862;23;20014;-80
2021/11/23 02:32:56;;;;;;;27.15;13.90;;;3.80;99.90;;;;;;5017743;23;20019;-79
2021/11/23 02:34:57;;;;;;;23.17;12.80;;;3.90;99.90;;;;;;5017909;23;20086;-81
2021/11/23 02:36:58;;;;;;;22.25;13.20;;;3.90;99.90;;;;;;5018140;23;20018;-79
2021/11/23 02:39:00;;;;;;;20.45;11.98;;;4.00;99.90;;;;;;5016466;23;20014;-79
2021/11/23 02:41:02;;;;;;;28.30;13.10;;;4.00;99.90;;;;;;5015739;23;20055;-80
2021/11/23 02:43:03;;;;;;;23.48;11.93;;;4.20;99.90;;;;;;5015651;23;20090;-80
2021/11/23 02:45:05;;;;;;;16.77;11.25;;;4.20;99.90;;;;;;5019136;23;20042;-79
2021/11/23 02:47:06;;;;;;;19.13;10.98;;;4.20;99.90;;;;;;5017692;23;20006;-79
2021/11/23 02:49:07;;;;;;;22.45;10.30;;;4.30;99.90;;;;;;5018106;23;20543;-79
2021/11/23 02:53:08;;;;;;;20.02;10.80;;;4.40;99.90;;;;;;5017731;23;20098;-78
2021/11/23 02:55:09;;;;;;;20.25;10.10;;;4.40;99.90;;;;;;5018570;23;20050;-79
2021/11/23 02:57:09;;;;;;;20.83;10.15;;;4.30;99.90;;;;;;5017939;23;20124;-79
2021/11/23 02:59:12;;;;;;;24.42;9.90;;;4.30;99.90;;;;;;5018754;23;20345;-78
2021/11/23 03:01:15;;;;;;;22.65;11.48;;;4.30;99.90;;;;;;5018013;23;20018;-78
2021/11/23 03:03:16;;;;;;;15.50;9.52;;;4.30;99.90;;;;;;5018520;23;20019;-78
2021/11/23 03:05:19;;;;;;;20.30;10.57;;;4.30;99.90;;;;;;5015930;23;20019;-80
2021/11/23 03:07:21;;;;;;;20.90;9.18;;;4.30;99.90;;;;;;5016969;23;20007;-79
2021/11/23 03:09:22;;;;;;;26.63;12.43;;;4.30;99.90;;;;;;5019293;23;20031;-78
2021/11/23 03:11:24;;;;;;;21.88;11.18;;;4.30;99.90;;;;;;5018888;23;20297;-80
2021/11/23 03:13:24;;;;;;;20.92;11.10;;;4.30;99.90;;;;;;5017032;23;20086;-80
2021/11/23 03:15:26;;;;;;;22.70;11.55;;;4.30;99.90;;;;;;5019521;23;20010;-79
2021/11/23 03:17:27;;;;;;;27.75;12.50;;;4.40;99.90;;;;;;5018324;23;20086;-79
2021/11/23 03:19:28;;;;;;;26.98;12.60;;;4.40;99.90;;;;;;5019122;23;20007;-79
2021/11/23 03:21:29;;;;;;;25.48;12.73;;;4.30;99.90;;;;;;5019149;23;20442;-79
2021/11/23 03:23:29;;;;;;;24.13;12.60;;;4.30;99.90;;;;;;5019236;23;20007;-79
2021/11/23 03:25:30;;;;;;;23.88;13.63;;;4.30;99.90;;;;;;5019228;23;20022;-78
2021/11/23 03:27:32;;;;;;;24.20;12.35;;;4.30;99.90;;;;;;4993314;23;20014;-78
2021/11/23 03:29:34;;;;;;;24.23;14.85;;;4.30;99.90;;;;;;5019222;23;20011;-79
2021/11/23 03:31:34;;;;;;;27.55;16.45;;;4.30;99.90;;;;;;5018617;23;20030;-79
2021/11/23 03:33:35;;;;;;;24.67;11.38;;;4.30;99.90;;;;;;5018911;23;20015;-79
2021/11/23 03:35:39;;;;;;;18.85;11.57;;;4.30;99.90;;;;;;5018315;23;20081;-78
2021/11/23 03:37:41;;;;;;;20.85;10.18;;;4.30;99.90;;;;;;5015543;23;20015;-79
2021/11/23 03:39:43;;;;;;;17.67;10.18;;;4.40;99.90;;;;;;5018159;23;20007;-80
2021/11/23 03:41:44;;;;;;;21.35;10.77;;;4.60;99.90;;;;;;5019111;23;20090;-79
2021/11/23 03:43:45;;;;;;;25.63;9.57;;;4.70;99.90;;;;;;5016775;23;20018;-78
2021/11/23 03:45:45;;;;;;;18.73;10.02;;;4.90;99.90;;;;;;5019083;23;20015;-79
2021/11/23 03:47:46;;;;;;;18.33;9.45;;;4.90;99.90;;;;;;5016297;23;20047;-79
2021/11/23 03:49:48;;;;;;;18.15;9.02;;;5.00;99.90;;;;;;5017162;23;20007;-79
2021/11/23 03:51:49;;;;;;;25.67;9.73;;;5.10;99.90;;;;;;5016425;23;20220;-78
2021/11/23 03:53:50;;;;;;;16.63;10.05;;;5.10;99.90;;;;;;5018611;23;20007;-77
2021/11/23 03:55:52;;;;;;;24.00;10.52;;;5.10;99.90;;;;;;5017708;23;20086;-78
2021/11/23 03:57:53;;;;;;;27.00;10.48;;;5.30;99.90;;;;;;5018951;23;20006;-79
2021/11/23 03:59:53;;;;;;;20.30;8.88;;;5.40;99.90;;;;;;5018401;23;20022;-79
2021/11/23 04:01:54;;;;;;;24.48;11.07;;;5.50;99.90;;;;;;5019367;23;20427;-80
2021/11/23 04:03:55;;;;;;;22.88;9.77;;;5.50;99.90;;;;;;5017261;23;20046;-79
2021/11/23 04:05:55;;;;;;;24.38;10.02;;;5.60;99.90;;;;;;5018996;23;20042;-80
2021/11/23 04:07:56;;;;;;;20.38;10.93;;;5.50;99.90;;;;;;5016929;23;20019;-79
2021/11/23 04:09:57;;;;;;;22.55;10.00;;;5.60;99.90;;;;;;5017005;23;20019;-80
2021/11/23 04:11:58;;;;;;;24.77;10.57;;;5.60;99.90;;;;;;5016161;23;20106;-79
2021/11/23 04:13:59;;;;;;;25.38;10.55;;;5.60;99.90;;;;;;5018727;23;20086;-79
2021/11/23 04:16:00;;;;;;;23.50;10.90;;;5.60;99.90;;;;;;5018785;23;20066;-79
2021/11/23 04:18:01;;;;;;;22.52;10.13;;;5.60;99.90;;;;;;5018404;23;20007;-79
2021/11/23 04:20:04;;;;;;;19.15;9.93;;;5.70;99.90;;;;;;5018400;23;20015;-79
2021/11/23 04:22:07;;;;;;;21.67;10.87;;;5.70;99.90;;;;;;4993271;23;20019;-79
2021/11/23 04:24:07;;;;;;;22.15;10.60;;;5.70;99.90;;;;;;5016156;23;20323;-79
2021/11/23 04:26:08;;;;;;;20.17;10.38;;;5.80;99.90;;;;;;5018646;23;20015;-79
2021/11/23 04:28:09;;;;;;;19.42;10.57;;;5.80;99.90;;;;;;5018729;23;20043;-79
2021/11/23 04:30:12;;;;;;;24.30;11.02;;;5.90;99.90;;;;;;5018111;23;20015;-79
2021/11/23 04:32:12;;;;;;;25.88;11.45;;;5.90;99.90;;;;;;5018308;23;20013;-79
2021/11/23 04:34:14;;;;;;;23.33;10.90;;;5.90;99.90;;;;;;5016620;23;20042;-79
2021/11/23 04:36:15;;;;;;;26.35;11.02;;;6.00;99.90;;;;;;5018962;23;20089;-79
2021/11/23 04:38:16;;;;;;;30.15;11.82;;;6.10;99.90;;;;;;5016450;23;20011;-79
2021/11/23 04:40:18;;;;;;;30.30;11.40;;;6.10;99.90;;;;;;5016926;23;20015;-78
2021/11/23 04:42:21;;;;;;;19.35;10.75;;;6.10;99.90;;;;;;5017939;23;20046;-79
2021/11/23 04:44:22;;;;;;;18.40;11.48;;;6.10;99.90;;;;;;5017517;23;20033;-80
2021/11/23 04:46:23;;;;;;;26.27;10.30;;;6.10;99.90;;;;;;4992693;23;20027;-78
2021/11/23 04:48:23;;;;;;;30.70;11.27;;;6.10;99.90;;;;;;5018890;23;20013;-78
2021/11/23 04:50:24;;;;;;;20.27;11.23;;;6.20;99.90;;;;;;5016742;23;20014;-79
2021/11/23 04:52:25;;;;;;;22.95;11.18;;;6.20;99.90;;;;;;5016777;23;20041;-78
2021/11/23 04:54:25;;;;;;;23.67;10.60;;;6.30;99.90;;;;;;5018238;23;20033;-79
2021/11/23 04:56:26;;;;;;;20.88;11.80;;;6.30;99.90;;;;;;5017061;23;20502;-79
2021/11/23 04:58:27;;;;;;;31.33;11.50;;;6.40;99.90;;;;;;5018145;23;20022;-79
2021/11/23 05:00:27;;;;;;;25.45;10.65;;;6.30;99.90;;;;;;5018148;23;20011;-79
2021/11/23 05:02:30;;;;;;;28.40;11.02;;;6.40;99.90;;;;;;5016174;23;20442;-78
2021/11/23 05:04:31;;;;;;;20.88;10.40;;;6.50;99.90;;;;;;5016527;23;20014;-78
2021/11/23 05:06:32;;;;;;;21.67;11.23;;;6.50;99.90;;;;;;5016367;23;20011;-80
2021/11/23 05:08:33;;;;;;;23.63;10.35;;;6.60;99.90;;;;;;5018073;23;20034;-78
2021/11/23 05:10:35;;;;;;;21.70;10.80;;;6.60;99.90;;;;;;5018213;23;20077;-79
2021/11/23 05:12:37;;;;;;;26.20;11.68;;;6.60;99.90;;;;;;5016286;23;20009;-79
2021/11/23 05:14:38;;;;;;;29.08;11.27;;;6.60;99.90;;;;;;5018575;23;20011;-78
2021/11/23 05:16:40;;;;;;;20.90;10.77;;;6.60;99.90;;;;;;5018320;23;20744;-78
2021/11/23 05:18:41;;;;;;;21.73;10.05;;;6.60;99.90;;;;;;5016678;23;20404;-80
2021/11/23 05:20:43;;;;;;;22.92;10.88;;;6.70;99.90;;;;;;5016181;23;20019;-78
2021/11/23 05:22:44;;;;;;;31.52;11.68;;;6.70;99.90;;;;;;5016213;23;20078;-78
2021/11/23 05:24:45;;;;;;;23.65;12.10;;;6.80;99.90;;;;;;5016071;23;20019;-78
2021/11/23 05:26:45;;;;;;;25.05;12.23;;;6.70;99.90;;;;;;5016224;23;20007;-79
2021/11/23 05:28:46;;;;;;;23.23;11.93;;;6.80;99.90;;;;;;5017598;23;20091;-78
2021/11/23 05:30:47;;;;;;;25.85;13.25;;;6.80;99.90;;;;;;5016665;23;20075;-77
2021/11/23 05:32:49;;;;;;;28.83;12.18;;;6.80;99.90;;;;;;5016083;23;20011;-77
2021/11/23 05:34:49;;;;;;;26.60;11.55;;;6.90;99.90;;;;;;5016355;23;20030;-79
2021/11/23 05:36:50;;;;;;;21.50;12.40;;;6.90;99.90;;;;;;5015579;23;20019;-78
2021/11/23 05:38:50;;;;;;;24.52;12.32;;;6.90;99.90;;;;;;5017470;23;20783;-78
2021/11/23 05:40:51;;;;;;;24.13;10.70;;;7.00;99.90;;;;;;5015543;23;20058;-77
2021/11/23 05:42:53;;;;;;;26.17;12.75;;;7.00;99.90;;;;;;5017660;23;19999;-78
2021/11/23 05:44:53;;;;;;;28.98;12.52;;;7.00;99.90;;;;;;5017078;23;20089;-78
2021/11/23 05:46:54;;;;;;;23.25;11.95;;;6.90;99.90;;;;;;5017542;23;20038;-78
2021/11/23 05:48:55;;;;;;;21.98;11.95;;;6.90;99.90;;;;;;5015587;23;20010;-78
2021/11/23 05:51:03;;;;;;;24.52;11.75;;;6.80;99.90;;;;;;5015847;23;20042;-78
2021/11/23 05:53:03;;;;;;;29.13;12.55;;;6.80;99.90;;;;;;5016962;23;20323;-78
2021/11/23 05:55:04;;;;;;;23.83;11.27;;;6.80;99.90;;;;;;5017018;23;20043;-78
2021/11/23 05:57:05;;;;;;;20.77;11.00;;;6.80;99.90;;;;;;5016868;23;20049;-78
2021/11/23 05:59:06;;;;;;;25.77;11.15;;;6.80;99.90;;;;;;5016056;23;20385;-78
2021/11/23 06:01:07;;;;;;;24.92;10.98;;;6.80;99.90;;;;;;5015774;23;20442;-79
2021/11/23 06:03:08;;;;;;;27.38;11.13;;;6.70;99.90;;;;;;5017947;23;20045;-78
2021/11/23 06:05:09;;;;;;;18.88;11.57;;;6.70;99.90;;;;;;5015650;23;20018;-79
2021/11/23 06:07:10;;;;;;;27.92;11.70;;;6.80;99.90;;;;;;5017197;23;20010;-78
2021/11/23 06:09:12;;;;;;;24.20;11.45;;;6.80;99.90;;;;;;5017638;23;20078;-79
2021/11/23 06:11:13;;;;;;;22.52;12.25;;;6.80;99.90;;;;;;5015955;23;20408;-79
2021/11/23 06:13:13;;;;;;;23.70;13.25;;;6.70;99.90;;;;;;5015743;23;20066;-78
2021/11/23 06:15:14;;;;;;;29.58;12.95;;;6.80;99.90;;;;;;5017134;23;20096;-79
2021/11/23 06:17:15;;;;;;;23.33;13.35;;;6.80;99.90;;;;;;5017627;23;20347;-79
2021/11/23 06:19:15;;;;;;;29.38;13.27;;;6.90;99.90;;;;;;5015323;23;20014;-79
2021/11/23 06:21:18;;;;;;;26.45;13.73;;;6.90;99.90;;;;;;5015784;23;20019;-78
2021/11/23 06:23:20;;;;;;;25.38;13.38;;;6.90;99.90;;;;;;5014966;23;20018;-78
2021/11/23 06:25:21;;;;;;;30.42;13.43;;;6.90;99.90;;;;;;5017629;23;20021;-79
2021/11/23 06:27:21;;;;;;;23.15;12.95;;;6.90;99.90;;;;;;5016118;23;19999;-79
2021/11/23 06:29:24;;;;;;;21.13;11.80;;;6.90;99.90;;;;;;5016567;23;20011;-79
2021/11/23 06:31:25;;;;;;;26.02;13.65;;;6.90;99.90;;;;;;5015482;23;20030;-77
2021/11/23 06:33:26;;;;;;;25.42;14.02;;;6.80;99.90;;;;;;5016367;23;20007;-79
2021/11/23 06:35:27;;;;;;;27.63;13.18;;;6.80;99.90;;;;;;5015252;23;20010;-79
2021/11/23 06:37:27;;;;;;;23.00;12.48;;;6.80;99.90;;;;;;5017300;23;20106;-79
2021/11/23 06:39:28;;;;;;;24.80;14.27;;;6.80;99.90;;;;;;5016596;23;20031;-78
2021/11/23 06:41:29;;;;;;;25.27;13.05;;;6.80;99.90;;;;;;5016658;23;20042;-78
2021/11/23 06:43:30;;;;;;;30.70;13.05;;;6.80;99.90;;;;;;5016498;23;20066;-78
2021/11/23 06:45:30;;;;;;;26.20;13.57;;;6.80;99.90;;;;;;5016282;23;20011;-78
2021/11/23 06:47:32;;;;;;;28.20;13.73;;;6.70;99.90;;;;;;5016495;23;20034;-78
2021/11/23 06:49:33;;;;;;;30.20;15.48;;;6.70;99.90;;;;;;5015994;23;20440;-79
2021/11/23 06:51:34;;;;;;;28.33;16.35;;;6.70;99.90;;;;;;5014958;23;20038;-78
2021/11/23 06:53:35;;;;;;;31.20;17.00;;;6.60;99.90;;;;;;5016791;23;20014;-78
2021/11/23 06:55:36;;;;;;;34.75;17.55;;;6.40;99.90;;;;;;5016577;23;20018;-78
2021/11/23 06:57:37;;;;;;;34.80;17.90;;;6.30;99.90;;;;;;5015762;23;20066;-78
2021/11/23 06:59:39;;;;;;;33.25;17.73;;;6.20;99.90;;;;;;5015996;23;20547;-79
2021/11/23 07:01:40;;;;;;;28.90;17.48;;;6.30;99.90;;;;;;5016585;23;20041;-79
2021/11/23 07:03:41;;;;;;;35.47;17.42;;;6.30;99.90;;;;;;5015374;23;20019;-78
2021/11/23 07:05:41;;;;;;;34.63;17.83;;;6.30;99.90;;;;;;5013943;23;20079;-78
2021/11/23 07:07:42;;;;;;;28.50;15.82;;;6.30;99.90;;;;;;5014569;23;20007;-78
2021/11/23 07:09:43;;;;;;;27.65;15.98;;;6.30;99.90;;;;;;5016230;23;20018;-78
2021/11/23 07:11:44;;;;;;;41.72;16.33;;;6.40;99.90;;;;;;5017192;23;20063;-78
2021/11/23 07:13:46;;;;;;;46.17;17.00;;;6.40;99.90;;;;;;4990366;23;20674;-78
2021/11/23 07:15:47;;;;;;;43.80;17.20;;;6.40;99.90;;;;;;5015273;23;20102;-77
2021/11/23 07:17:48;;;;;;;38.53;16.00;;;6.50;99.90;;;;;;5015636;23;20243;-79
2021/11/23 07:19:49;;;;;;;29.80;15.38;;;6.50;99.90;;;;;;5017631;23;20085;-78
2021/11/23 07:21:50;;;;;;;40.58;16.92;;;6.60;99.90;;;;;;5017414;23;20011;-76
2021/11/23 07:23:51;;;;;;;29.20;15.70;;;6.70;99.90;;;;;;5017157;23;20137;-76
2021/11/23 07:25:52;;;;;;;28.98;15.20;;;6.70;99.90;;;;;;5016862;23;20019;-76
2021/11/23 07:27:52;;;;;;;27.25;15.10;;;6.70;99.90;;;;;;5017542;23;20143;-77
2021/11/23 07:29:53;;;;;;;34.08;16.90;;;6.80;99.90;;;;;;5011974;23;20057;-76
2021/11/23 07:31:53;;;;;;;39.08;19.08;;;6.80;99.90;;;;;;5017255;23;20092;-77
2021/11/23 07:33:54;;;;;;;35.55;18.05;;;6.90;99.90;;;;;;5017470;23;20006;-77
2021/11/23 07:35:55;;;;;;;33.13;16.83;;;7.00;99.90;;;;;;5016041;23;20015;-77
2021/11/23 07:37:55;;;;;;;30.65;15.88;;;7.00;99.90;;;;;;5017519;23;20022;-76
2021/11/23 07:39:56;;;;;;;37.88;15.00;;;7.10;99.90;;;;;;5017962;23;20386;-76
2021/11/23 07:41:57;;;;;;;32.00;15.63;;;7.10;99.90;;;;;;5016291;23;20102;-77
2021/11/23 07:43:58;;;;;;;32.88;13.98;;;7.20;99.90;;;;;;5018058;23;20007;-75
2021/11/23 07:45:59;;;;;;;27.25;15.07;;;7.20;99.90;;;;;;5018674;23;20078;-77
2021/11/23 07:47:59;;;;;;;33.35;14.68;;;7.30;99.90;;;;;;5018052;23;20074;-76
2021/11/23 07:50:00;;;;;;;28.10;13.80;;;7.30;99.90;;;;;;5018934;23;20093;-77
2021/11/23 07:52:00;;;;;;;33.70;14.43;;;7.30;99.90;;;;;;5017794;23;20293;-77
2021/11/23 07:54:01;;;;;;;30.08;14.40;;;7.30;99.90;;;;;;5018533;23;20522;-77
2021/11/23 07:56:02;;;;;;;34.20;14.55;;;7.30;99.90;;;;;;5018360;23;20018;-77
2021/11/23 07:58:03;;;;;;;28.15;14.00;;;7.40;99.90;;;;;;5018073;23;20449;-76
2021/11/23 08:00:06;;;;;;;27.27;13.90;;;7.40;99.90;;;;;;5017819;23;20089;-76
2021/11/23 08:02:07;;;;;;;29.95;13.93;;;7.40;99.90;;;;;;5018421;23;20825;-75
2021/11/23 08:04:08;;;;;;;31.02;14.43;;;7.40;99.90;;;;;;5016147;23;20098;-76
2021/11/23 08:06:10;;;;;;;35.72;14.00;;;7.40;99.90;;;;;;5017012;23;20025;-77
2021/11/23 08:08:14;;;;;;;26.15;13.50;;;7.40;99.90;;;;;;5017280;23;20325;-77
2021/11/23 08:10:14;;;;;;;;;;;7.40;99.90;;;;;;5017022;23;20011;-77
2021/11/23 08:12:15;;;;;;;41.22;15.07;;;7.40;99.90;;;;;;5018046;23;20298;-77
2021/11/23 08:14:16;;;;;;;31.55;15.20;;;7.40;99.90;;;;;;5018567;23;20819;-77
2021/11/23 08:16:16;;;;;;;40.13;17.90;;;7.40;99.90;;;;;;5018387;23;20042;-78
2021/11/23 08:18:17;;;;;;;32.58;16.25;;;7.60;99.90;;;;;;5017780;23;20014;-75
2021/11/23 08:20:18;;;;;;;35.78;17.27;;;7.70;99.90;;;;;;5016235;23;20015;-75
2021/11/23 08:22:19;;;;;;;33.47;16.35;;;7.80;99.90;;;;;;5016511;23;20015;-78
2021/11/23 08:24:19;;;;;;;34.38;17.05;;;7.90;99.90;;;;;;5018199;23;20006;-78
2021/11/23 08:26:22;;;;;;;35.33;17.30;;;8.00;99.90;;;;;;5016586;23;20019;-77
2021/11/23 08:28:26;;;;;;;28.65;15.60;;;7.90;99.90;;;;;;5017843;23;20007;-77
2021/11/23 08:30:26;;;;;;;29.48;17.15;;;7.90;99.90;;;;;;5017885;23;20017;-77
2021/11/23 08:32:27;;;;;;;42.30;18.25;;;8.00;99.90;;;;;;5018230;23;20015;-78
2021/11/23 08:34:28;;;;;;;32.40;17.25;;;8.00;99.90;;;;;;5018073;23;20045;-75
2021/11/23 08:36:30;;;;;;;33.88;18.90;;;8.10;99.90;;;;;;5016014;23;20039;-77
2021/11/23 08:38:31;;;;;;;40.72;18.92;;;8.20;99.90;;;;;;5017298;23;20113;-75
2021/11/23 08:40:31;;;;;;;30.92;17.13;;;8.20;99.90;;;;;;5017538;23;20376;-77
2021/11/23 08:42:32;;;;;;;29.30;17.38;;;8.20;99.90;;;;;;5016701;23;20372;-77
2021/11/23 08:44:33;;;;;;;30.30;14.48;;;8.30;99.90;;;;;;5017389;23;20011;-77
2021/11/23 08:46:34;;;;;;;31.88;16.02;;;8.30;99.90;;;;;;5017522;23;20102;-77
2021/11/23 08:48:35;;;;;;;45.28;18.50;;;8.40;99.90;;;;;;5018383;23;20006;-77
2021/11/23 08:50:35;;;;;;;42.45;16.42;;;8.50;99.90;;;;;;5015284;23;20003;-78
2021/11/23 08:52:36;;;;;;;32.45;15.00;;;8.50;99.90;;;;;;5016169;23;20037;-77
2021/11/23 08:54:37;;;;;;;26.30;14.63;;;8.50;99.90;;;;;;5017656;23;20800;-77
2021/11/23 08:56:39;;;;;;;31.83;14.63;;;8.50;99.90;;;;;;5018390;23;20085;-77
2021/11/23 08:58:42;;;;;;;27.65;13.35;;;8.60;99.90;;;;;;5017635;23;20054;-76
2021/11/23 09:00:43;;;;;;;28.45;13.52;;;8.60;99.90;;;;;;5017367;23;20031;-77
2021/11/23 09:02:53;;;;;;;30.23;14.77;;;8.70;99.90;;;;;;5015032;23;20007;-77
2021/11/23 09:04:53;;;;;;;32.10;15.15;;;8.80;99.90;;;;;;5017434;23;20038;-76
2021/11/23 09:06:55;;;;;;;32.85;14.30;;;8.80;99.90;;;;;;5017442;23;20003;-76
2021/11/23 09:08:58;;;;;;;30.42;16.15;;;8.90;99.90;;;;;;5017739;23;20010;-76
2021/11/23 09:10:58;;;;;;;30.35;15.80;;;8.90;99.90;;;;;;5015644;23;20416;-77
2021/11/23 09:13:00;;;;;;;24.05;14.00;;;8.90;99.90;;;;;;5017800;23;20014;-77
2021/11/23 09:15:00;;;;;;;27.77;14.85;;;8.90;99.90;;;;;;5015956;23;20007;-78
2021/11/23 09:17:05;;;;;;;29.98;14.13;;;9.00;99.90;;;;;;5017760;23;20014;-77
2021/11/23 09:19:06;;;;;;;32.03;14.68;;;9.00;99.90;;;;;;5018070;23;20038;-77
2021/11/23 09:21:07;;;;;;;27.75;13.55;;;9.10;99.90;;;;;;5017088;23;20486;-77
2021/11/23 09:23:12;;;;;;;25.23;12.80;;;9.10;99.90;;;;;;5015784;23;20343;-77
2021/11/23 09:25:15;;;;;;;23.25;13.25;;;9.20;99.90;;;;;;5017553;23;20015;-77
2021/11/23 09:27:16;;;;;;;26.88;12.85;;;9.20;99.90;;;;;;5017794;23;20082;-77
2021/11/23 09:29:17;;;;;;;23.17;11.88;;;9.20;99.90;;;;;;5015537;23;20019;-76
2021/11/23 09:31:19;;;;;;;22.90;11.63;;;9.30;99.90;;;;;;5016880;23;20400;-76
2021/11/23 09:33:20;;;;;;;25.80;11.50;;;9.40;99.90;;;;;;5017273;23;20022;-78
2021/11/23 09:35:22;;;;;;;26.52;13.60;;;9.40;99.90;;;;;;5017881;23;20196;-76
2021/11/23 09:37:22;;;;;;;22.48;12.32;;;9.60;99.90;;;;;;5016870;23;20451;-75
2021/11/23 09:39:23;;;;;;;21.25;12.00;;;9.60;99.90;;;;;;5017424;23;20031;-76
2021/11/23 09:41:24;;;;;;;20.23;11.43;;;9.70;99.90;;;;;;5016690;23;20102;-76
2021/11/23 09:43:24;;;;;;;21.35;10.43;;;9.80;99.90;;;;;;5017639;23;20003;-76
2021/11/23 09:45:25;;;;;;;22.83;10.23;;;9.90;99.90;;;;;;5016824;23;20018;-77
2021/11/23 09:47:27;;;;;;;17.83;10.43;;;10.00;99.90;;;;;;5017746;23;20026;-76
2021/11/23 09:49:28;;;;;;;20.88;11.07;;;10.00;99.90;;;;;;5014867;23;20363;-78
2021/11/23 09:51:29;;;;;;;21.27;11.23;;;10.00;99.90;;;;;;5015909;23;20011;-77
2021/11/23 09:53:29;;;;;;;19.27;10.40;;;10.10;99.90;;;;;;5016882;23;20019;-77
2021/11/23 09:55:30;;;;;;;18.85;9.95;;;10.20;99.90;;;;;;5017829;23;20639;-76
2021/11/23 09:57:31;;;;;;;17.08;9.23;;;10.30;99.90;;;;;;5015463;23;20015;-77
2021/11/23 09:59:32;;;;;;;15.75;8.63;;;10.50;99.90;;;;;;5017456;23;20086;-77
2021/11/23 10:01:52;;;;;;;17.08;8.77;;;10.50;99.90;;;;;;5016943;23;20007;-77
2021/11/23 10:03:55;;;;;;;11.15;8.38;;;10.60;99.90;;;;;;5015153;23;20347;-76
2021/11/23 10:06:19;;;;;;;16.13;9.48;;;10.60;99.90;;;;;;5017335;23;20015;-76
2021/11/23 10:08:20;;;;;;;;;;;10.60;99.90;;;;;;5015551;23;20010;-76
2021/11/23 10:10:27;;;;;;;12.52;7.07;;;10.70;99.90;;;;;;5017519;23;19940;-76
2021/11/23 10:12:27;;;;;;;15.07;7.97;;;10.70;99.90;;;;;;5016572;23;20066;-76
2021/11/23 10:14:28;;;;;;;14.07;7.55;;;10.80;99.90;;;;;;5017237;23;20007;-77
2021/11/23 10:16:44;;;;;;;15.68;8.38;;;10.80;99.90;;;;;;5016915;23;20347;-76
2021/11/23 10:18:45;;;;;;;21.48;8.10;;;10.80;99.90;;;;;;5017689;23;20011;-76
2021/11/23 10:20:57;;;;;;;13.70;7.47;;;10.90;99.90;;;;;;5015135;23;20066;-76
2021/11/23 10:23:18;;;;;;;14.50;7.97;;;10.80;99.90;;;;;;5016545;23;20058;-76
2021/11/23 10:25:18;;;;;;;12.45;7.05;;;10.90;99.90;;;;;;5014920;23;20085;-77
2021/11/23 10:27:19;;;;;;;11.25;7.07;;;11.10;99.90;;;;;;5015301;23;20059;-76